Sparrevohn LRRS Airport Sparrevohn US
ICAO: PASV
IATA:
Category: Medium
Scheduled Services:

Elevation: 1585 ft
TransAlt. 18000 ft.

Airport Communications:
ANCHORAGE CNTR:134.3
KENAI RDO:122.5
CTAF/UNICOM:126.2

PASV Zoom In..

If you have problems with the map follow the link
https://www.worldairports.se/pages/airport.php?
ICAO=PASV

Runways:

(A) RW 16 length 4229 ft width 151 ft
---- / hdg 162

(B) RW 34 length 4229 ft width 151 ft
---- / hdg 342

Location; PASV
Day. 22 / Time. 10.55 Zulu
* Altimeter: 29.53
* Temperature: -16° c. -3.2°f.
* Wind from: VRB° Speed 03 kn.
Dewpoint: -21° c.
Visibility: 10 Statute Miles.
Clouds: Few 1200 ft.
Clouds: Scattered 1900 ft.

PASV 221055Z AUTO VRB03KT 10SM FEW012 SCT019 M16/M21 A2953 RMK AO2 SLP053 T11581215


Wind From VRB°
Speed 03 kn.

 
 
jpsmedia worldairports.se 2020   terms of use